sensor_id;sensor_type;location;lat;lon;timestamp;P1;durP1;ratioP1;P2;durP2;ratioP2
18711;SDS011;9485;49.386;8.674;2023-07-31T00:03:08;5.15;;;1.23;;
18711;SDS011;9485;49.386;8.674;2023-07-31T00:08:30;4.32;;;1.23;;
18711;SDS011;9485;49.386;8.674;2023-07-31T00:13:52;3.65;;;1.30;;
18711;SDS011;9485;49.386;8.674;2023-07-31T00:19:13;1.17;;;1.05;;
18711;SDS011;9485;49.386;8.674;2023-07-31T00:24:34;3.80;;;1.13;;
18711;SDS011;9485;49.386;8.674;2023-07-31T00:29:56;1.80;;;1.42;;
18711;SDS011;9485;49.386;8.674;2023-07-31T00:35:18;1.75;;;1.30;;
18711;SDS011;9485;49.386;8.674;2023-07-31T00:40:38;5.05;;;1.52;;
18711;SDS011;9485;49.386;8.674;2023-07-31T00:46:01;1.90;;;1.38;;
18711;SDS011;9485;49.386;8.674;2023-07-31T00:51:21;2.38;;;1.20;;
18711;SDS011;9485;49.386;8.674;2023-07-31T00:56:43;1.27;;;1.10;;
18711;SDS011;9485;49.386;8.674;2023-07-31T01:02:08;3.38;;;1.30;;
18711;SDS011;9485;49.386;8.674;2023-07-31T01:07:31;4.00;;;1.17;;
18711;SDS011;9485;49.386;8.674;2023-07-31T01:13:01;2.80;;;1.30;;
18711;SDS011;9485;49.386;8.674;2023-07-31T01:18:26;2.53;;;1.17;;
18711;SDS011;9485;49.386;8.674;2023-07-31T01:24:01;3.33;;;1.38;;
18711;SDS011;9485;49.386;8.674;2023-07-31T01:29:43;3.85;;;1.35;;
18711;SDS011;9485;49.386;8.674;2023-07-31T01:35:14;1.73;;;1.20;;
18711;SDS011;9485;49.386;8.674;2023-07-31T01:40:35;1.95;;;1.40;;
18711;SDS011;9485;49.386;8.674;2023-07-31T01:45:57;2.40;;;1.70;;
18711;SDS011;9485;49.386;8.674;2023-07-31T01:51:18;3.22;;;1.55;;
18711;SDS011;9485;49.386;8.674;2023-07-31T01:56:40;2.75;;;1.30;;
18711;SDS011;9485;49.386;8.674;2023-07-31T02:02:02;1.77;;;1.30;;
18711;SDS011;9485;49.386;8.674;2023-07-31T02:07:23;1.95;;;1.35;;
18711;SDS011;9485;49.386;8.674;2023-07-31T02:12:43;2.30;;;1.30;;
18711;SDS011;9485;49.386;8.674;2023-07-31T02:18:05;2.20;;;1.23;;
18711;SDS011;9485;49.386;8.674;2023-07-31T02:23:25;2.38;;;1.27;;
18711;SDS011;9485;49.386;8.674;2023-07-31T02:28:46;1.85;;;1.30;;
18711;SDS011;9485;49.386;8.674;2023-07-31T02:34:10;1.88;;;1.30;;
18711;SDS011;9485;49.386;8.674;2023-07-31T02:39:30;2.30;;;1.27;;
18711;SDS011;9485;49.386;8.674;2023-07-31T02:44:52;2.15;;;1.30;;
18711;SDS011;9485;49.386;8.674;2023-07-31T02:50:16;2.35;;;1.15;;
18711;SDS011;9485;49.386;8.674;2023-07-31T02:55:36;5.00;;;1.20;;
18711;SDS011;9485;49.386;8.674;2023-07-31T03:00:57;2.83;;;1.30;;
18711;SDS011;9485;49.386;8.674;2023-07-31T03:06:20;2.85;;;1.25;;
18711;SDS011;9485;49.386;8.674;2023-07-31T03:11:41;2.63;;;1.15;;
18711;SDS011;9485;49.386;8.674;2023-07-31T03:17:01;2.72;;;1.48;;
18711;SDS011;9485;49.386;8.674;2023-07-31T03:22:24;5.78;;;1.48;;
18711;SDS011;9485;49.386;8.674;2023-07-31T03:27:46;1.50;;;1.08;;
18711;SDS011;9485;49.386;8.674;2023-07-31T03:33:09;2.03;;;1.25;;
18711;SDS011;9485;49.386;8.674;2023-07-31T03:38:31;3.15;;;1.35;;
18711;SDS011;9485;49.386;8.674;2023-07-31T03:43:52;2.53;;;1.25;;
18711;SDS011;9485;49.386;8.674;2023-07-31T03:49:14;2.88;;;1.38;;
18711;SDS011;9485;49.386;8.674;2023-07-31T03:54:38;4.28;;;1.40;;
18711;SDS011;9485;49.386;8.674;2023-07-31T03:59:59;3.05;;;1.40;;
18711;SDS011;9485;49.386;8.674;2023-07-31T04:05:20;1.88;;;1.40;;
18711;SDS011;9485;49.386;8.674;2023-07-31T04:10:41;3.25;;;1.40;;
18711;SDS011;9485;49.386;8.674;2023-07-31T04:16:04;2.72;;;1.80;;
18711;SDS011;9485;49.386;8.674;2023-07-31T04:21:24;1.38;;;1.25;;
18711;SDS011;9485;49.386;8.674;2023-07-31T04:26:46;4.90;;;1.70;;
18711;SDS011;9485;49.386;8.674;2023-07-31T04:32:06;1.52;;;1.23;;
18711;SDS011;9485;49.386;8.674;2023-07-31T04:37:27;3.08;;;1.60;;
18711;SDS011;9485;49.386;8.674;2023-07-31T04:42:49;1.95;;;1.40;;
18711;SDS011;9485;49.386;8.674;2023-07-31T04:48:09;4.50;;;1.60;;
18711;SDS011;9485;49.386;8.674;2023-07-31T04:53:30;2.75;;;1.90;;
18711;SDS011;9485;49.386;8.674;2023-07-31T04:58:54;2.25;;;1.45;;
18711;SDS011;9485;49.386;8.674;2023-07-31T05:04:15;2.28;;;1.63;;
18711;SDS011;9485;49.386;8.674;2023-07-31T05:09:35;2.10;;;1.75;;
18711;SDS011;9485;49.386;8.674;2023-07-31T05:14:59;4.22;;;1.75;;
18711;SDS011;9485;49.386;8.674;2023-07-31T05:20:20;4.20;;;1.63;;
18711;SDS011;9485;49.386;8.674;2023-07-31T05:25:40;2.35;;;1.48;;
18711;SDS011;9485;49.386;8.674;2023-07-31T05:31:03;2.55;;;1.90;;
18711;SDS011;9485;49.386;8.674;2023-07-31T05:36:24;3.33;;;1.73;;
18711;SDS011;9485;49.386;8.674;2023-07-31T05:41:44;1.95;;;1.67;;
18711;SDS011;9485;49.386;8.674;2023-07-31T05:47:06;2.33;;;1.40;;
18711;SDS011;9485;49.386;8.674;2023-07-31T05:52:27;2.30;;;1.60;;
18711;SDS011;9485;49.386;8.674;2023-07-31T05:57:48;2.72;;;1.40;;
18711;SDS011;9485;49.386;8.674;2023-07-31T06:03:10;3.28;;;2.17;;
18711;SDS011;9485;49.386;8.674;2023-07-31T06:08:31;4.00;;;1.90;;
18711;SDS011;9485;49.386;8.674;2023-07-31T06:13:51;2.63;;;1.65;;
18711;SDS011;9485;49.386;8.674;2023-07-31T06:19:13;2.92;;;1.40;;
18711;SDS011;9485;49.386;8.674;2023-07-31T06:24:35;2.05;;;1.25;;
18711;SDS011;9485;49.386;8.674;2023-07-31T06:29:56;2.17;;;1.27;;
18711;SDS011;9485;49.386;8.674;2023-07-31T06:35:18;1.80;;;1.45;;
18711;SDS011;9485;49.386;8.674;2023-07-31T06:40:39;2.63;;;1.70;;
18711;SDS011;9485;49.386;8.674;2023-07-31T06:46:04;2.38;;;1.52;;
18711;SDS011;9485;49.386;8.674;2023-07-31T06:51:26;4.88;;;2.20;;
18711;SDS011;9485;49.386;8.674;2023-07-31T06:56:50;2.35;;;1.80;;
18711;SDS011;9485;49.386;8.674;2023-07-31T07:02:10;2.42;;;1.85;;
18711;SDS011;9485;49.386;8.674;2023-07-31T07:07:32;5.13;;;1.65;;
18711;SDS011;9485;49.386;8.674;2023-07-31T07:12:53;2.33;;;1.40;;
18711;SDS011;9485;49.386;8.674;2023-07-31T07:18:15;1.90;;;1.52;;
18711;SDS011;9485;49.386;8.674;2023-07-31T07:23:38;1.65;;;1.17;;
18711;SDS011;9485;49.386;8.674;2023-07-31T07:28:58;3.28;;;1.85;;
18711;SDS011;9485;49.386;8.674;2023-07-31T07:34:22;4.80;;;1.42;;
18711;SDS011;9485;49.386;8.674;2023-07-31T07:39:44;3.20;;;1.42;;
18711;SDS011;9485;49.386;8.674;2023-07-31T07:45:06;1.80;;;1.33;;
18711;SDS011;9485;49.386;8.674;2023-07-31T07:50:28;3.42;;;1.50;;
18711;SDS011;9485;49.386;8.674;2023-07-31T07:55:50;4.60;;;1.63;;
18711;SDS011;9485;49.386;8.674;2023-07-31T08:01:10;3.53;;;1.50;;
18711;SDS011;9485;49.386;8.674;2023-07-31T08:06:31;2.97;;;1.38;;
18711;SDS011;9485;49.386;8.674;2023-07-31T08:11:53;3.35;;;1.42;;
18711;SDS011;9485;49.386;8.674;2023-07-31T08:17:16;4.50;;;1.50;;
18711;SDS011;9485;49.386;8.674;2023-07-31T08:22:36;2.03;;;1.50;;
18711;SDS011;9485;49.386;8.674;2023-07-31T08:27:58;4.05;;;1.80;;
18711;SDS011;9485;49.386;8.674;2023-07-31T08:33:20;4.25;;;1.50;;
18711;SDS011;9485;49.386;8.674;2023-07-31T08:38:40;3.53;;;2.00;;
18711;SDS011;9485;49.386;8.674;2023-07-31T08:44:02;3.03;;;1.88;;
18711;SDS011;9485;49.386;8.674;2023-07-31T08:49:23;1.65;;;1.55;;
18711;SDS011;9485;49.386;8.674;2023-07-31T08:54:47;2.28;;;1.67;;
18711;SDS011;9485;49.386;8.674;2023-07-31T09:00:10;4.90;;;1.98;;
18711;SDS011;9485;49.386;8.674;2023-07-31T09:05:33;2.70;;;1.50;;
18711;SDS011;9485;49.386;8.674;2023-07-31T09:10:59;3.42;;;2.08;;
18711;SDS011;9485;49.386;8.674;2023-07-31T09:16:28;3.40;;;1.95;;
18711;SDS011;9485;49.386;8.674;2023-07-31T09:21:51;3.72;;;1.98;;
18711;SDS011;9485;49.386;8.674;2023-07-31T09:27:11;2.60;;;1.58;;
18711;SDS011;9485;49.386;8.674;2023-07-31T09:32:33;3.70;;;2.13;;
18711;SDS011;9485;49.386;8.674;2023-07-31T09:37:55;2.03;;;1.50;;
18711;SDS011;9485;49.386;8.674;2023-07-31T09:43:21;4.75;;;2.08;;
18711;SDS011;9485;49.386;8.674;2023-07-31T09:48:44;3.45;;;1.50;;
18711;SDS011;9485;49.386;8.674;2023-07-31T09:54:11;3.03;;;1.35;;
18711;SDS011;9485;49.386;8.674;2023-07-31T09:59:32;3.58;;;1.77;;
18711;SDS011;9485;49.386;8.674;2023-07-31T10:04:55;2.47;;;1.77;;
18711;SDS011;9485;49.386;8.674;2023-07-31T10:10:22;3.05;;;2.03;;
18711;SDS011;9485;49.386;8.674;2023-07-31T10:15:44;2.95;;;1.63;;
18711;SDS011;9485;49.386;8.674;2023-07-31T10:21:09;2.58;;;1.73;;
18711;SDS011;9485;49.386;8.674;2023-07-31T10:26:32;2.40;;;1.80;;
18711;SDS011;9485;49.386;8.674;2023-07-31T10:31:57;3.13;;;2.03;;
18711;SDS011;9485;49.386;8.674;2023-07-31T10:37:22;2.08;;;1.50;;
18711;SDS011;9485;49.386;8.674;2023-07-31T10:42:46;4.25;;;2.50;;
18711;SDS011;9485;49.386;8.674;2023-07-31T10:48:12;4.43;;;1.80;;
18711;SDS011;9485;49.386;8.674;2023-07-31T10:53:35;3.22;;;1.77;;
18711;SDS011;9485;49.386;8.674;2023-07-31T10:59:00;4.50;;;2.25;;
18711;SDS011;9485;49.386;8.674;2023-07-31T11:04:23;4.30;;;2.30;;
18711;SDS011;9485;49.386;8.674;2023-07-31T11:09:46;3.30;;;2.00;;
18711;SDS011;9485;49.386;8.674;2023-07-31T11:15:08;3.20;;;2.00;;
18711;SDS011;9485;49.386;8.674;2023-07-31T11:20:31;1.92;;;1.67;;
18711;SDS011;9485;49.386;8.674;2023-07-31T11:25:53;2.75;;;1.73;;
18711;SDS011;9485;49.386;8.674;2023-07-31T11:31:22;4.50;;;1.50;;
18711;SDS011;9485;49.386;8.674;2023-07-31T11:36:52;2.60;;;1.85;;
18711;SDS011;9485;49.386;8.674;2023-07-31T11:42:16;2.28;;;1.73;;
18711;SDS011;9485;49.386;8.674;2023-07-31T11:47:37;3.08;;;1.77;;
18711;SDS011;9485;49.386;8.674;2023-07-31T11:52:59;3.03;;;1.70;;
18711;SDS011;9485;49.386;8.674;2023-07-31T11:58:28;4.88;;;2.10;;
18711;SDS011;9485;49.386;8.674;2023-07-31T12:03:50;1.63;;;1.50;;
18711;SDS011;9485;49.386;8.674;2023-07-31T12:09:13;2.22;;;1.50;;
18711;SDS011;9485;49.386;8.674;2023-07-31T12:14:36;2.28;;;1.85;;
18711;SDS011;9485;49.386;8.674;2023-07-31T12:20:03;4.32;;;1.80;;
18711;SDS011;9485;49.386;8.674;2023-07-31T12:25:32;3.85;;;1.83;;
18711;SDS011;9485;49.386;8.674;2023-07-31T12:30:57;4.45;;;1.90;;
18711;SDS011;9485;49.386;8.674;2023-07-31T12:36:20;3.55;;;1.60;;
18711;SDS011;9485;49.386;8.674;2023-07-31T12:41:43;2.40;;;1.67;;
18711;SDS011;9485;49.386;8.674;2023-07-31T12:47:05;2.03;;;1.83;;
18711;SDS011;9485;49.386;8.674;2023-07-31T12:52:26;2.38;;;1.67;;
18711;SDS011;9485;49.386;8.674;2023-07-31T12:57:46;2.58;;;1.67;;
18711;SDS011;9485;49.386;8.674;2023-07-31T13:03:08;3.17;;;2.05;;
18711;SDS011;9485;49.386;8.674;2023-07-31T13:08:29;3.58;;;2.53;;
18711;SDS011;9485;49.386;8.674;2023-07-31T13:13:50;3.70;;;1.63;;
18711;SDS011;9485;49.386;8.674;2023-07-31T13:19:12;3.10;;;1.77;;
18711;SDS011;9485;49.386;8.674;2023-07-31T13:24:33;4.60;;;1.98;;
18711;SDS011;9485;49.386;8.674;2023-07-31T13:29:54;2.83;;;1.50;;
18711;SDS011;9485;49.386;8.674;2023-07-31T13:35:16;2.40;;;1.70;;
18711;SDS011;9485;49.386;8.674;2023-07-31T13:40:37;3.55;;;1.70;;
18711;SDS011;9485;49.386;8.674;2023-07-31T13:45:57;2.50;;;1.80;;
18711;SDS011;9485;49.386;8.674;2023-07-31T13:51:24;2.33;;;1.58;;
18711;SDS011;9485;49.386;8.674;2023-07-31T13:56:46;3.70;;;1.73;;
18711;SDS011;9485;49.386;8.674;2023-07-31T14:02:06;2.97;;;1.58;;
18711;SDS011;9485;49.386;8.674;2023-07-31T14:07:28;2.42;;;1.70;;
18711;SDS011;9485;49.386;8.674;2023-07-31T14:12:51;2.20;;;1.42;;
18711;SDS011;9485;49.386;8.674;2023-07-31T14:18:11;2.10;;;1.63;;
18711;SDS011;9485;49.386;8.674;2023-07-31T14:23:33;2.60;;;1.50;;
18711;SDS011;9485;49.386;8.674;2023-07-31T14:28:54;2.63;;;1.77;;
18711;SDS011;9485;49.386;8.674;2023-07-31T14:34:15;1.83;;;1.60;;
18711;SDS011;9485;49.386;8.674;2023-07-31T14:39:38;3.00;;;1.90;;
18711;SDS011;9485;49.386;8.674;2023-07-31T14:44:58;2.30;;;1.80;;
18711;SDS011;9485;49.386;8.674;2023-07-31T14:50:19;2.50;;;1.75;;
18711;SDS011;9485;49.386;8.674;2023-07-31T14:55:43;4.60;;;1.77;;
18711;SDS011;9485;49.386;8.674;2023-07-31T15:01:03;3.05;;;1.65;;
18711;SDS011;9485;49.386;8.674;2023-07-31T15:06:24;4.03;;;1.98;;
18711;SDS011;9485;49.386;8.674;2023-07-31T15:11:45;2.20;;;1.65;;
18711;SDS011;9485;49.386;8.674;2023-07-31T15:17:06;8.07;;;2.22;;
18711;SDS011;9485;49.386;8.674;2023-07-31T15:22:27;2.28;;;1.67;;
18711;SDS011;9485;49.386;8.674;2023-07-31T15:27:50;2.10;;;1.80;;
18711;SDS011;9485;49.386;8.674;2023-07-31T15:33:11;3.08;;;1.80;;
18711;SDS011;9485;49.386;8.674;2023-07-31T15:38:32;3.97;;;1.58;;
18711;SDS011;9485;49.386;8.674;2023-07-31T15:43:54;2.83;;;1.50;;
18711;SDS011;9485;49.386;8.674;2023-07-31T15:49:15;3.92;;;1.67;;
18711;SDS011;9485;49.386;8.674;2023-07-31T15:54:36;1.85;;;1.55;;
18711;SDS011;9485;49.386;8.674;2023-07-31T15:59:58;2.45;;;1.60;;
18711;SDS011;9485;49.386;8.674;2023-07-31T16:05:18;2.45;;;1.58;;
18711;SDS011;9485;49.386;8.674;2023-07-31T16:10:39;3.80;;;2.20;;
18711;SDS011;9485;49.386;8.674;2023-07-31T16:16:01;3.95;;;1.90;;
18711;SDS011;9485;49.386;8.674;2023-07-31T16:21:23;2.50;;;1.48;;
18711;SDS011;9485;49.386;8.674;2023-07-31T16:26:45;4.68;;;1.85;;
18711;SDS011;9485;49.386;8.674;2023-07-31T16:32:07;3.95;;;1.58;;
18711;SDS011;9485;49.386;8.674;2023-07-31T16:37:27;2.80;;;1.58;;
18711;SDS011;9485;49.386;8.674;2023-07-31T16:42:48;2.65;;;1.85;;
18711;SDS011;9485;49.386;8.674;2023-07-31T16:48:10;3.42;;;1.90;;
18711;SDS011;9485;49.386;8.674;2023-07-31T16:53:32;2.30;;;1.70;;
18711;SDS011;9485;49.386;8.674;2023-07-31T16:58:53;2.65;;;1.67;;
18711;SDS011;9485;49.386;8.674;2023-07-31T17:04:16;3.33;;;2.05;;
18711;SDS011;9485;49.386;8.674;2023-07-31T17:09:37;2.97;;;1.77;;
18711;SDS011;9485;49.386;8.674;2023-07-31T17:14:58;2.90;;;1.65;;
18711;SDS011;9485;49.386;8.674;2023-07-31T17:20:19;5.22;;;1.98;;
18711;SDS011;9485;49.386;8.674;2023-07-31T17:25:41;2.15;;;1.50;;
18711;SDS011;9485;49.386;8.674;2023-07-31T17:31:03;3.70;;;1.77;;
18711;SDS011;9485;49.386;8.674;2023-07-31T17:36:25;3.70;;;2.05;;
18711;SDS011;9485;49.386;8.674;2023-07-31T17:41:45;4.70;;;2.78;;
18711;SDS011;9485;49.386;8.674;2023-07-31T17:47:06;5.93;;;2.20;;
18711;SDS011;9485;49.386;8.674;2023-07-31T17:52:27;3.78;;;2.08;;
18711;SDS011;9485;49.386;8.674;2023-07-31T17:57:50;4.13;;;2.45;;
18711;SDS011;9485;49.386;8.674;2023-07-31T18:03:10;4.30;;;2.35;;
18711;SDS011;9485;49.386;8.674;2023-07-31T18:08:33;3.15;;;2.22;;
18711;SDS011;9485;49.386;8.674;2023-07-31T18:13:53;5.18;;;2.30;;
18711;SDS011;9485;49.386;8.674;2023-07-31T18:19:13;2.67;;;2.22;;
18711;SDS011;9485;49.386;8.674;2023-07-31T18:24:35;3.78;;;2.40;;
18711;SDS011;9485;49.386;8.674;2023-07-31T18:29:58;4.75;;;2.33;;
18711;SDS011;9485;49.386;8.674;2023-07-31T18:35:18;3.55;;;2.72;;
18711;SDS011;9485;49.386;8.674;2023-07-31T18:40:40;4.60;;;2.60;;
18711;SDS011;9485;49.386;8.674;2023-07-31T18:46:01;2.80;;;2.25;;
18711;SDS011;9485;49.386;8.674;2023-07-31T18:51:23;3.17;;;2.53;;
18711;SDS011;9485;49.386;8.674;2023-07-31T18:56:45;3.83;;;2.50;;
18711;SDS011;9485;49.386;8.674;2023-07-31T19:02:06;4.78;;;2.78;;
18711;SDS011;9485;49.386;8.674;2023-07-31T19:07:27;2.75;;;2.40;;
18711;SDS011;9485;49.386;8.674;2023-07-31T19:12:48;3.95;;;2.53;;
18711;SDS011;9485;49.386;8.674;2023-07-31T19:18:09;5.13;;;2.60;;
18711;SDS011;9485;49.386;8.674;2023-07-31T19:23:30;3.35;;;2.17;;
18711;SDS011;9485;49.386;8.674;2023-07-31T19:28:51;3.33;;;2.47;;
18711;SDS011;9485;49.386;8.674;2023-07-31T19:34:12;4.95;;;3.05;;
18711;SDS011;9485;49.386;8.674;2023-07-31T19:39:33;3.22;;;2.50;;
18711;SDS011;9485;49.386;8.674;2023-07-31T19:44:55;4.22;;;2.40;;
18711;SDS011;9485;49.386;8.674;2023-07-31T19:50:15;3.33;;;2.30;;
18711;SDS011;9485;49.386;8.674;2023-07-31T19:55:36;3.67;;;2.58;;
18711;SDS011;9485;49.386;8.674;2023-07-31T20:00:58;4.25;;;2.50;;
18711;SDS011;9485;49.386;8.674;2023-07-31T20:06:18;5.10;;;2.85;;
18711;SDS011;9485;49.386;8.674;2023-07-31T20:11:39;3.30;;;2.38;;
18711;SDS011;9485;49.386;8.674;2023-07-31T20:17:01;5.20;;;2.63;;
18711;SDS011;9485;49.386;8.674;2023-07-31T20:22:21;3.90;;;2.50;;
18711;SDS011;9485;49.386;8.674;2023-07-31T20:27:42;3.90;;;3.00;;
18711;SDS011;9485;49.386;8.674;2023-07-31T20:33:06;3.45;;;2.45;;
18711;SDS011;9485;49.386;8.674;2023-07-31T20:38:28;3.70;;;2.22;;
18711;SDS011;9485;49.386;8.674;2023-07-31T20:43:48;3.55;;;2.30;;
18711;SDS011;9485;49.386;8.674;2023-07-31T20:49:10;2.92;;;2.50;;
18711;SDS011;9485;49.386;8.674;2023-07-31T20:54:31;4.82;;;2.58;;
18711;SDS011;9485;49.386;8.674;2023-07-31T20:59:52;4.18;;;2.80;;
18711;SDS011;9485;49.386;8.674;2023-07-31T21:05:14;3.45;;;2.20;;
18711;SDS011;9485;49.386;8.674;2023-07-31T21:10:37;5.18;;;3.10;;
18711;SDS011;9485;49.386;8.674;2023-07-31T21:15:58;2.58;;;2.38;;
18711;SDS011;9485;49.386;8.674;2023-07-31T21:21:21;3.55;;;2.15;;
18711;SDS011;9485;49.386;8.674;2023-07-31T21:26:43;5.47;;;3.08;;
18711;SDS011;9485;49.386;8.674;2023-07-31T21:32:03;3.08;;;2.25;;
18711;SDS011;9485;49.386;8.674;2023-07-31T21:37:27;4.45;;;2.53;;
18711;SDS011;9485;49.386;8.674;2023-07-31T21:42:47;2.90;;;2.40;;
18711;SDS011;9485;49.386;8.674;2023-07-31T21:48:09;4.13;;;2.70;;
18711;SDS011;9485;49.386;8.674;2023-07-31T21:53:31;3.75;;;2.60;;
18711;SDS011;9485;49.386;8.674;2023-07-31T21:58:52;3.90;;;2.50;;
18711;SDS011;9485;49.386;8.674;2023-07-31T22:04:12;3.72;;;2.42;;
18711;SDS011;9485;49.386;8.674;2023-07-31T22:09:35;4.05;;;2.42;;
18711;SDS011;9485;49.386;8.674;2023-07-31T22:14:55;3.38;;;2.60;;
18711;SDS011;9485;49.386;8.674;2023-07-31T22:20:17;2.42;;;2.22;;
18711;SDS011;9485;49.386;8.674;2023-07-31T22:25:39;2.75;;;2.33;;
18711;SDS011;9485;49.386;8.674;2023-07-31T22:31:00;2.45;;;2.25;;
18711;SDS011;9485;49.386;8.674;2023-07-31T22:36:20;5.05;;;2.10;;
18711;SDS011;9485;49.386;8.674;2023-07-31T22:41:42;5.30;;;2.47;;
18711;SDS011;9485;49.386;8.674;2023-07-31T22:47:04;3.80;;;2.38;;
18711;SDS011;9485;49.386;8.674;2023-07-31T22:52:26;3.10;;;2.50;;
18711;SDS011;9485;49.386;8.674;2023-07-31T22:57:48;3.33;;;2.28;;
18711;SDS011;9485;49.386;8.674;2023-07-31T23:03:10;3.53;;;2.40;;
18711;SDS011;9485;49.386;8.674;2023-07-31T23:08:31;3.78;;;2.58;;
18711;SDS011;9485;49.386;8.674;2023-07-31T23:13:52;3.28;;;2.47;;
18711;SDS011;9485;49.386;8.674;2023-07-31T23:19:13;3.53;;;2.63;;
18711;SDS011;9485;49.386;8.674;2023-07-31T23:24:34;3.67;;;2.55;;
18711;SDS011;9485;49.386;8.674;2023-07-31T23:29:55;4.20;;;2.30;;
18711;SDS011;9485;49.386;8.674;2023-07-31T23:35:16;3.63;;;2.35;;
18711;SDS011;9485;49.386;8.674;2023-07-31T23:40:37;3.67;;;2.45;;
18711;SDS011;9485;49.386;8.674;2023-07-31T23:45:59;4.25;;;2.70;;
18711;SDS011;9485;49.386;8.674;2023-07-31T23:51:19;3.63;;;2.78;;
18711;SDS011;9485;49.386;8.674;2023-07-31T23:56:40;3.60;;;2.40;;
